Time;durP1;ratioP1;P1;durP2;ratioP2;P2;SDS_P1;SDS_P2;PMS_P1;PMS_P2;Temp;Humidity;BMP_temperature;BMP_pressure;BME280_temperature;BME280_humidity;BME280_pressure;Samples;Min_cycle;Max_cycle;Signal;HPM_P1;HPM_P2
2022/08/28 00:00:33;;;;;;;67.47;6.77;;;20.50;64.60;;;;;;5075206;28;20923;-81
2022/08/28 00:02:59;;;;;;;68.77;7.40;;;20.50;62.20;;;;;;5057306;28;20488;-82
2022/08/28 00:05:28;;;;;;;66.90;7.33;;;20.40;63.20;;;;;;5076077;28;20837;-82
2022/08/28 00:07:54;;;;;;;68.70;6.13;;;20.40;63.30;;;;;;5061247;28;20431;-82
2022/08/28 00:10:21;;;;;;;68.20;6.70;;;20.40;61.30;;;;;;5060763;28;20420;-82
2022/08/28 00:12:48;;;;;;;67.03;6.67;;;20.30;62.10;;;;;;5060849;28;20420;-82
2022/08/28 00:15:17;;;;;;;67.20;6.63;;;20.30;62.70;;;;;;5078659;28;20772;-82
2022/08/28 00:17:44;;;;;;;70.30;7.77;;;20.30;60.80;;;;;;5060916;28;20562;-82
2022/08/28 00:20:11;;;;;;;70.23;7.93;;;20.30;59.70;;;;;;5078630;28;20404;-82
2022/08/28 00:22:39;;;;;;;66.30;7.03;;;20.40;58.80;;;;;;5078115;28;20396;-82
2022/08/28 00:25:07;;;;;;;68.10;8.17;;;20.30;57.90;;;;;;5078556;28;20484;-82
2022/08/28 00:27:51;;;;;;;71.20;10.07;;;20.30;57.80;;;;;;5078602;28;20505;-82
2022/08/28 00:30:30;;;;;;;68.53;8.87;;;20.40;54.50;;;;;;5078205;28;20429;-82
2022/08/28 00:33:11;;;;;;;67.90;7.57;;;20.30;53.50;;;;;;5078429;28;20542;-82
2022/08/28 00:35:39;;;;;;;66.30;8.43;;;20.30;55.70;;;;;;5078625;28;20381;-82
2022/08/28 00:38:05;;;;;;;68.03;7.73;;;20.30;54.50;;;;;;5060424;28;20446;-82
2022/08/28 00:40:31;;;;;;;71.10;9.43;;;20.30;54.30;;;;;;5078237;28;20419;-82
2022/08/28 00:42:57;;;;;;;70.13;8.13;;;20.30;54.10;;;;;;5060510;28;20915;-83
2022/08/28 00:45:25;;;;;;;70.60;10.10;;;20.30;54.00;;;;;;5077920;28;20429;-82
2022/08/28 00:47:51;;;;;;;68.93;9.27;;;20.20;54.00;;;;;;5078723;28;21036;-82
2022/08/28 00:50:21;;;;;;;69.47;9.10;;;20.20;55.50;;;;;;5078765;28;20436;-82
2022/08/28 00:52:51;;;;;;;68.40;8.40;;;20.30;55.00;;;;;;5059937;28;20205;-82
2022/08/28 00:55:21;;;;;;;72.60;10.53;;;20.30;54.70;;;;;;5060783;28;20918;-82
2022/08/28 00:57:51;;;;;;;67.73;8.90;;;20.20;55.50;;;;;;5077837;28;20505;-82
2022/08/28 01:00:28;;;;;;;70.10;8.70;;;20.30;54.70;;;;;;5060021;28;20443;-82
2022/08/28 01:02:57;;;;;;;70.10;9.07;;;20.30;56.60;;;;;;5077973;28;20862;-82
2022/08/28 01:05:23;;;;;;;68.30;8.53;;;20.30;55.90;;;;;;5077999;28;20494;-82
2022/08/28 01:07:50;;;;;;;67.47;8.33;;;20.30;56.80;;;;;;5077849;28;20418;-82
2022/08/28 01:10:20;;;;;;;69.37;7.47;;;20.30;54.10;;;;;;5078302;28;20406;-81
2022/08/28 01:12:46;;;;;;;73.20;9.37;;;20.30;55.50;;;;;;5059670;28;20906;-82
2022/08/28 01:15:16;;;;;;;68.27;7.87;;;20.20;56.50;;;;;;5059774;28;20459;-82
2022/08/28 01:17:52;;;;;;;68.30;7.83;;;20.20;56.30;;;;;;5077121;28;20432;-82
2022/08/28 01:20:21;;;;;;;68.10;7.90;;;20.30;55.60;;;;;;5077751;28;20389;-82
2022/08/28 01:23:06;;;;;;;70.97;8.53;;;20.20;56.20;;;;;;5059562;28;20754;-82
2022/08/28 01:25:34;;;;;;;69.80;8.17;;;20.30;55.30;;;;;;5077494;28;20385;-82
2022/08/28 01:28:04;;;;;;;72.67;8.93;;;20.20;56.60;;;;;;5059491;28;20429;-82
2022/08/28 01:30:31;;;;;;;68.73;8.80;;;20.30;55.30;;;;;;5076959;28;20508;-82
2022/08/28 01:32:57;;;;;;;67.33;8.23;;;20.20;56.00;;;;;;5059350;28;20522;-83
2022/08/28 01:35:30;;;;;;;76.50;9.37;;;20.20;56.50;;;;;;5077064;28;20408;-82
2022/08/28 01:37:56;;;;;;;70.47;8.97;;;20.20;56.30;;;;;;5077128;28;20424;-82
2022/08/28 01:40:35;;;;;;;70.40;7.00;;;20.20;56.00;;;;;;5077499;28;20439;-82
2022/08/28 01:43:17;;;;;;;70.70;8.17;;;20.10;56.00;;;;;;5058947;28;20996;-82
2022/08/28 01:45:46;;;;;;;68.00;8.67;;;20.10;56.40;;;;;;5077521;28;20437;-82
2022/08/28 01:48:13;;;;;;;66.73;7.37;;;20.10;55.50;;;;;;5077218;28;20434;-82
2022/08/28 01:50:39;;;;;;;69.73;8.47;;;20.10;56.00;;;;;;5058837;28;20414;-82
2022/08/28 01:53:06;;;;;;;67.93;8.93;;;20.00;56.40;;;;;;5077601;28;20444;-83
2022/08/28 01:55:34;;;;;;;69.80;8.50;;;20.00;54.20;;;;;;5077156;28;20427;-83
2022/08/28 01:58:01;;;;;;;71.03;9.47;;;20.00;54.90;;;;;;5077111;28;20446;-82
2022/08/28 02:00:28;;;;;;;67.87;9.90;;;20.10;52.60;;;;;;5077192;28;20411;-83
2022/08/28 02:02:55;;;;;;;66.60;8.50;;;20.00;52.50;;;;;;5077085;28;20411;-82
2022/08/28 02:05:23;;;;;;;67.97;8.80;;;19.90;51.10;;;;;;5076987;28;20829;-82
2022/08/28 02:07:49;;;;;;;73.00;8.37;;;19.80;52.20;;;;;;5076480;28;20429;-83
2022/08/28 02:10:15;;;;;;;69.83;8.90;;;19.80;54.20;;;;;;5076862;28;20399;-82
2022/08/28 02:12:42;;;;;;;69.57;8.40;;;19.80;53.30;;;;;;5076781;28;20514;-83
2022/08/28 02:15:09;;;;;;;72.40;7.97;;;19.80;50.70;;;;;;5076412;28;20409;-82
2022/08/28 02:17:35;;;;;;;69.03;8.93;;;19.80;50.80;;;;;;5058545;28;20426;-83
2022/08/28 02:20:02;;;;;;;66.73;7.13;;;19.80;51.50;;;;;;5076675;28;20975;-83
2022/08/28 02:22:28;;;;;;;69.90;8.10;;;19.80;49.50;;;;;;5076689;28;20440;-82
2022/08/28 02:24:56;;;;;;;68.30;8.67;;;19.80;47.50;;;;;;5076488;28;20916;-82
2022/08/28 02:27:22;;;;;;;71.13;9.00;;;19.80;48.00;;;;;;5057919;28;20190;-82
2022/08/28 02:29:48;;;;;;;71.17;8.30;;;19.80;47.30;;;;;;5057934;28;20434;-82
2022/08/28 02:32:13;;;;;;;69.10;9.17;;;19.90;46.70;;;;;;5058333;28;20194;-82
2022/08/28 02:34:40;;;;;;;70.87;7.27;;;19.90;45.20;;;;;;5058380;28;20755;-82
2022/08/28 02:37:07;;;;;;;71.57;7.60;;;19.80;44.80;;;;;;5076618;28;20235;-82
2022/08/28 02:39:33;;;;;;;67.97;6.57;;;19.90;44.10;;;;;;5076649;28;20403;-83
2022/08/28 02:41:59;;;;;;;67.53;7.90;;;19.90;42.40;;;;;;5076207;28;20761;-82
2022/08/28 02:44:25;;;;;;;71.47;8.50;;;19.80;44.70;;;;;;5076179;28;20401;-82
2022/08/28 02:46:51;;;;;;;69.57;8.30;;;19.80;43.40;;;;;;5076275;28;20228;-82
2022/08/28 02:49:17;;;;;;;70.83;9.27;;;19.70;45.40;;;;;;5076839;28;20635;-82
2022/08/28 02:51:43;;;;;;;69.07;8.47;;;19.70;46.50;;;;;;5075931;28;20395;-82
2022/08/28 02:54:09;;;;;;;69.27;9.33;;;19.70;46.70;;;;;;5057709;28;20783;-82
2022/08/28 02:56:35;;;;;;;67.80;7.30;;;19.60;48.20;;;;;;5075756;28;20262;-82
2022/08/28 02:59:00;;;;;;;70.67;7.50;;;19.70;47.60;;;;;;5075765;28;20806;-82
2022/08/28 03:01:26;;;;;;;68.90;8.00;;;19.70;46.70;;;;;;5076386;28;20195;-82
2022/08/28 03:03:52;;;;;;;67.30;8.97;;;19.70;47.60;;;;;;5075848;28;20250;-82
2022/08/28 03:06:18;;;;;;;72.80;8.90;;;19.60;46.90;;;;;;5075747;28;20197;-82
2022/08/28 03:08:44;;;;;;;70.20;7.80;;;19.60;47.20;;;;;;5076283;28;20398;-82
2022/08/28 03:11:10;;;;;;;69.37;8.60;;;19.70;47.70;;;;;;5076409;28;20514;-82
2022/08/28 03:13:36;;;;;;;71.70;8.40;;;19.50;46.70;;;;;;5075716;28;20614;-82
2022/08/28 03:16:03;;;;;;;66.80;9.77;;;19.40;49.30;;;;;;5075582;28;20401;-83
2022/08/28 03:18:29;;;;;;;72.80;9.50;;;19.40;49.60;;;;;;5075698;28;20419;-82
2022/08/28 03:20:56;;;;;;;70.13;9.67;;;19.40;50.40;;;;;;5075436;28;20900;-82
2022/08/28 03:23:25;;;;;;;69.17;8.77;;;19.40;51.90;;;;;;5057949;28;20800;-82
2022/08/28 03:25:52;;;;;;;69.30;8.70;;;19.30;53.80;;;;;;5076091;28;20406;-81
2022/08/28 03:28:18;;;;;;;69.80;9.87;;;19.30;52.90;;;;;;5057605;28;20490;-82
2022/08/28 03:30:44;;;;;;;72.43;8.90;;;19.40;52.30;;;;;;5057570;28;20430;-82
2022/08/28 03:33:09;;;;;;;68.00;8.57;;;19.40;52.70;;;;;;5057603;28;20862;-82
2022/08/28 03:35:36;;;;;;;67.10;8.23;;;19.40;52.50;;;;;;5075578;28;20482;-82
2022/08/28 03:38:02;;;;;;;67.43;10.10;;;19.30;53.00;;;;;;5075353;28;20178;-82
2022/08/28 03:40:29;;;;;;;68.53;8.87;;;19.30;53.80;;;;;;5075401;28;20410;-82
2022/08/28 03:42:55;;;;;;;67.80;8.70;;;19.30;53.60;;;;;;5057581;28;20406;-82
2022/08/28 03:45:21;;;;;;;69.37;9.50;;;19.30;54.90;;;;;;5075414;28;20398;-82
2022/08/28 03:47:46;;;;;;;73.07;8.87;;;19.30;52.90;;;;;;5075214;28;20427;-82
2022/08/28 03:50:13;;;;;;;71.73;10.37;;;19.30;52.60;;;;;;5075046;28;20395;-82
2022/08/28 03:52:39;;;;;;;72.73;9.87;;;19.30;52.60;;;;;;5057335;28;20543;-82
2022/08/28 03:55:08;;;;;;;71.10;8.33;;;19.20;54.50;;;;;;5075228;28;20453;-82
2022/08/28 03:57:34;;;;;;;69.37;9.27;;;19.20;52.90;;;;;;5074931;28;20418;-82
2022/08/28 04:00:01;;;;;;;71.50;9.87;;;19.30;52.90;;;;;;5074743;28;20398;-82
2022/08/28 04:02:26;;;;;;;69.97;8.63;;;19.20;53.10;;;;;;5075033;28;20747;-82
2022/08/28 04:04:52;;;;;;;68.87;9.70;;;19.20;52.20;;;;;;5075465;28;20409;-82
2022/08/28 04:07:19;;;;;;;68.40;8.47;;;19.20;51.90;;;;;;5074817;28;20213;-83
2022/08/28 04:09:45;;;;;;;75.00;11.60;;;19.20;51.70;;;;;;5057346;28;20172;-82
2022/08/28 04:12:11;;;;;;;71.90;8.40;;;19.10;52.70;;;;;;5075163;28;20409;-82
2022/08/28 04:14:37;;;;;;;74.07;10.07;;;19.10;52.80;;;;;;5074582;28;20523;-82
2022/08/28 04:17:04;;;;;;;69.17;11.50;;;19.10;52.20;;;;;;5056829;28;20846;-83
2022/08/28 04:19:30;;;;;;;71.60;10.10;;;19.10;52.60;;;;;;5075029;28;20889;-82
2022/08/28 04:21:55;;;;;;;76.10;13.53;;;19.00;52.30;;;;;;5074681;28;20420;-82
2022/08/28 04:24:22;;;;;;;69.03;10.60;;;18.90;56.30;;;;;;5075198;28;20175;-82
2022/08/28 04:26:47;;;;;;;71.70;11.17;;;19.00;54.00;;;;;;5074744;28;20204;-83
2022/08/28 04:31:44;;;;;;;78.80;13.77;;;18.80;51.70;;;;;;5058650;28;20200;-82
2022/08/28 04:34:10;;;;;;;74.10;13.40;;;18.70;55.60;;;;;;5059689;28;20447;-82
2022/08/28 04:36:37;;;;;;;73.97;11.70;;;18.80;54.20;;;;;;5059066;28;20415;-82
2022/08/28 04:39:07;;;;;;;73.27;11.37;;;18.90;52.70;;;;;;5041272;28;20171;-82
2022/08/28 04:41:35;;;;;;;73.10;12.47;;;18.90;50.80;;;;;;5041548;28;20461;-83
2022/08/28 04:44:01;;;;;;;76.67;13.70;;;18.80;53.00;;;;;;5041048;28;20502;-82
2022/08/28 04:46:27;;;;;;;72.93;12.37;;;18.80;54.40;;;;;;5059076;28;20434;-82
2022/08/28 04:48:54;;;;;;;74.37;12.80;;;18.80;52.50;;;;;;5058692;28;20400;-82
2022/08/28 04:51:20;;;;;;;73.83;14.13;;;18.80;53.90;;;;;;5042516;28;20165;-83
2022/08/28 04:53:46;;;;;;;71.07;12.07;;;18.80;52.90;;;;;;5062977;28;20493;-82
2022/08/28 04:56:13;;;;;;;75.00;15.10;;;18.80;53.90;;;;;;5062112;28;20631;-82
2022/08/28 04:58:40;;;;;;;74.27;14.17;;;18.70;54.80;;;;;;5061132;28;20395;-82
2022/08/28 05:01:09;;;;;;;74.90;15.57;;;18.70;55.70;;;;;;5043641;28;20422;-82
2022/08/28 05:03:35;;;;;;;74.20;14.07;;;18.70;54.90;;;;;;5061339;28;20404;-82
2022/08/28 05:06:02;;;;;;;72.07;14.47;;;18.70;54.80;;;;;;5043390;28;20461;-82
2022/08/28 05:08:28;;;;;;;70.37;12.00;;;18.70;54.50;;;;;;5061225;28;20474;-82
2022/08/28 05:10:55;;;;;;;73.43;13.03;;;18.70;53.80;;;;;;5043341;28;20513;-82
2022/08/28 05:13:22;;;;;;;78.47;14.10;;;18.70;54.00;;;;;;5061158;28;20449;-82
2022/08/28 05:15:49;;;;;;;75.37;14.50;;;18.70;54.80;;;;;;5042835;28;20903;-82
2022/08/28 05:18:17;;;;;;;76.30;13.80;;;18.80;52.30;;;;;;5060646;28;20419;-82
2022/08/28 05:20:45;;;;;;;77.90;14.20;;;18.70;53.60;;;;;;5060604;28;20407;-82
2022/08/28 05:23:12;;;;;;;73.07;14.37;;;18.70;52.30;;;;;;5061383;28;20403;-82
2022/08/28 05:25:41;;;;;;;75.53;14.87;;;18.60;56.20;;;;;;5060923;28;20840;-82
2022/08/28 05:28:09;;;;;;;75.07;18.00;;;18.60;56.30;;;;;;5060667;28;20427;-82
2022/08/28 05:30:36;;;;;;;75.10;16.70;;;18.60;56.30;;;;;;5042752;28;20431;-82
2022/08/28 05:33:03;;;;;;;76.57;14.20;;;18.70;55.70;;;;;;5042453;28;20549;-82
2022/08/28 05:35:33;;;;;;;74.33;12.97;;;18.80;53.50;;;;;;5042254;28;20881;-83
2022/08/28 05:37:59;;;;;;;74.50;13.87;;;18.80;52.80;;;;;;5060217;28;20917;-82
2022/08/28 05:40:28;;;;;;;72.20;12.70;;;18.90;53.50;;;;;;5061096;28;20453;-82
2022/08/28 05:42:54;;;;;;;74.77;13.77;;;18.80;53.40;;;;;;5042747;28;20189;-83
2022/08/28 05:45:21;;;;;;;72.30;15.50;;;18.90;52.70;;;;;;5042523;28;20419;-82
2022/08/28 05:47:52;;;;;;;72.47;12.97;;;18.80;52.30;;;;;;5060293;28;20495;-82
2022/08/28 05:50:18;;;;;;;76.10;14.30;;;18.80;53.30;;;;;;5059267;28;20443;-81
2022/08/28 05:52:44;;;;;;;74.37;11.70;;;18.90;51.80;;;;;;5042579;28;20418;-81
2022/08/28 05:55:11;;;;;;;76.90;15.07;;;19.00;50.40;;;;;;5060819;28;20411;-82
2022/08/28 05:57:53;;;;;;;76.70;13.87;;;19.00;51.00;;;;;;5063725;28;20185;-82
2022/08/28 06:00:19;;;;;;;73.70;14.63;;;19.00;47.20;;;;;;5046080;28;20410;-81
2022/08/28 06:02:44;;;;;;;71.97;13.80;;;18.90;50.40;;;;;;5063301;28;20503;-81
2022/08/28 06:05:11;;;;;;;81.83;15.17;;;18.90;50.20;;;;;;5063770;28;20169;-82
2022/08/28 06:07:37;;;;;;;81.90;14.80;;;18.90;50.90;;;;;;5045827;28;20189;-82
2022/08/28 06:10:03;;;;;;;73.50;15.83;;;18.80;50.40;;;;;;5063944;28;20480;-82
2022/08/28 06:12:29;;;;;;;73.80;14.00;;;18.80;51.30;;;;;;5061775;28;20529;-82
2022/08/28 06:14:55;;;;;;;79.87;15.67;;;18.80;52.50;;;;;;5063334;28;20454;-80
2022/08/28 06:17:22;;;;;;;71.40;12.43;;;18.80;52.70;;;;;;5044325;28;20194;-81
2022/08/28 06:19:48;;;;;;;75.67;15.17;;;18.90;50.70;;;;;;5062339;28;20405;-82
2022/08/28 06:22:14;;;;;;;78.03;14.60;;;18.90;49.00;;;;;;5061913;28;20442;-83
2022/08/28 06:24:39;;;;;;;73.90;14.07;;;19.00;49.20;;;;;;5044055;28;20183;-82
2022/08/28 06:27:05;;;;;;;75.00;14.80;;;19.10;46.80;;;;;;5042997;28;20188;-83
2022/08/28 06:29:31;;;;;;;75.33;11.97;;;19.10;46.50;;;;;;5042055;28;20427;-82
2022/08/28 06:32:00;;;;;;;80.23;15.47;;;19.00;45.10;;;;;;5059956;28;20902;-82
2022/08/28 06:34:27;;;;;;;73.57;10.63;;;19.00;46.90;;;;;;5041869;28;20196;-82
2022/08/28 06:36:53;;;;;;;73.47;12.20;;;19.10;45.50;;;;;;5041932;28;20973;-82
2022/08/28 06:39:19;;;;;;;72.17;12.27;;;19.10;45.40;;;;;;5041671;28;20783;-82
2022/08/28 06:41:45;;;;;;;77.37;12.47;;;19.20;44.80;;;;;;5059136;28;20778;-82
2022/08/28 06:44:19;;;;;;;72.37;11.30;;;19.10;42.20;;;;;;5059411;28;20403;-82
2022/08/28 06:46:46;;;;;;;78.37;11.80;;;19.20;44.40;;;;;;5059009;28;20192;-82
2022/08/28 06:49:13;;;;;;;73.77;12.03;;;19.20;41.20;;;;;;5040829;28;20498;-82
2022/08/28 06:51:38;;;;;;;74.50;12.83;;;19.20;41.00;;;;;;5058264;28;20446;-82
2022/08/28 06:54:08;;;;;;;75.40;12.47;;;19.20;41.70;;;;;;5059100;28;20529;-83
2022/08/28 06:56:34;;;;;;;75.53;15.40;;;19.20;41.10;;;;;;5041369;28;20199;-82
2022/08/28 06:59:00;;;;;;;77.93;11.57;;;19.10;40.90;;;;;;5060786;28;20411;-82
2022/08/28 07:01:29;;;;;;;78.37;13.80;;;19.10;42.90;;;;;;5060754;28;20407;-82
2022/08/28 07:03:58;;;;;;;78.03;16.40;;;19.00;42.30;;;;;;5060575;28;20170;-82
2022/08/28 07:06:24;;;;;;;82.93;12.17;;;19.00;42.80;;;;;;5059557;28;20841;-82
2022/08/28 07:08:50;;;;;;;78.87;13.13;;;19.20;42.20;;;;;;5059057;28;20413;-82
2022/08/28 07:11:19;;;;;;;74.67;13.67;;;19.10;41.40;;;;;;5041049;28;20942;-82
2022/08/28 07:13:45;;;;;;;81.17;13.90;;;19.20;41.00;;;;;;5058297;28;20207;-81
2022/08/28 07:16:13;;;;;;;76.43;13.07;;;19.30;39.70;;;;;;5058201;28;20470;-82
2022/08/28 07:18:40;;;;;;;73.30;11.70;;;19.30;39.00;;;;;;5059452;28;20399;-82
2022/08/28 07:21:06;;;;;;;77.17;11.63;;;19.40;37.50;;;;;;5040983;28;20399;-82
2022/08/28 07:23:34;;;;;;;78.70;10.87;;;19.50;37.70;;;;;;5057769;28;20459;-81
2022/08/28 07:26:07;;;;;;;76.73;10.07;;;19.50;35.40;;;;;;5057336;28;20404;-81
2022/08/28 07:28:33;;;;;;;71.67;7.40;;;19.60;35.50;;;;;;5039843;28;20534;-81
2022/08/28 07:31:02;;;;;;;75.97;9.60;;;19.80;32.90;;;;;;5057313;28;20469;-82
2022/08/28 07:33:30;;;;;;;77.47;7.93;;;19.70;31.70;;;;;;5040039;28;20453;-81
2022/08/28 07:35:59;;;;;;;72.13;7.27;;;19.70;31.00;;;;;;5057880;28;20942;-82
2022/08/28 07:38:41;;;;;;;77.90;6.37;;;19.70;29.60;;;;;;5056283;28;20419;-83
2022/08/28 07:41:46;;;;;;;71.33;6.87;;;19.70;28.90;;;;;;5057951;28;20427;-83
2022/08/28 07:47:11;;;;;;;70.67;5.97;;;19.70;29.40;;;;;;5058061;28;20434;-83
2022/08/28 07:49:40;;;;;;;71.47;5.83;;;19.80;32.50;;;;;;5056944;28;20440;-83
2022/08/28 07:52:07;;;;;;;76.83;5.93;;;20.10;28.50;;;;;;5039176;28;20588;-80
2022/08/28 07:54:34;;;;;;;71.50;4.27;;;20.30;26.40;;;;;;5056671;28;20999;-81
2022/08/28 07:57:05;;;;;;;68.70;4.20;;;20.30;21.60;;;;;;5057704;28;20472;-81
2022/08/28 07:59:30;;;;;;;70.07;4.53;;;20.20;19.20;;;;;;5039898;28;20451;-80
2022/08/28 08:01:56;;;;;;;72.70;4.57;;;20.20;21.50;;;;;;5057676;28;20395;-80
2022/08/28 08:04:26;;;;;;;72.20;5.40;;;20.10;22.50;;;;;;5057422;28;20634;-81
2022/08/28 08:06:52;;;;;;;72.20;5.70;;;20.00;22.20;;;;;;5057229;28;20196;-80
2022/08/28 08:09:20;;;;;;;72.33;5.40;;;20.00;25.30;;;;;;5039253;28;20828;-83
2022/08/28 08:11:47;;;;;;;70.80;4.73;;;20.20;22.50;;;;;;5057813;28;20404;-81
2022/08/28 08:14:14;;;;;;;69.97;4.63;;;20.20;19.90;;;;;;5057224;28;20524;-80
2022/08/28 08:16:43;;;;;;;74.80;5.43;;;20.20;20.60;;;;;;5056923;28;20448;-79
2022/08/28 08:19:12;;;;;;;69.20;4.73;;;20.30;21.00;;;;;;5057059;28;20402;-81
2022/08/28 08:21:39;;;;;;;72.00;3.47;;;20.40;18.30;;;;;;5056789;28;20973;-81
2022/08/28 08:24:05;;;;;;;72.77;4.63;;;20.50;15.70;;;;;;5039091;28;20421;-80
2022/08/28 08:26:32;;;;;;;74.60;4.30;;;20.50;13.80;;;;;;5057868;28;20422;-80
2022/08/28 08:28:58;;;;;;;69.43;3.83;;;20.50;13.80;;;;;;5061134;28;20411;-81
2022/08/28 08:31:31;;;;;;;74.23;4.67;;;20.30;16.10;;;;;;5061646;28;20850;-80
2022/08/28 08:34:02;;;;;;;69.53;4.07;;;20.20;14.80;;;;;;5043605;28;20459;-81
2022/08/28 08:36:31;;;;;;;74.67;4.70;;;20.20;14.50;;;;;;5061311;28;20806;-81
2022/08/28 08:38:58;;;;;;;68.50;3.63;;;20.20;13.50;;;;;;5061015;28;20498;-81
2022/08/28 08:41:26;;;;;;;70.87;4.13;;;20.20;13.70;;;;;;5061707;28;20422;-81
2022/08/28 08:44:07;;;;;;;72.47;4.40;;;20.10;12.70;;;;;;5060752;28;20774;-81
2022/08/28 08:46:43;;;;;;;69.80;5.23;;;20.00;17.00;;;;;;5060628;28;20435;-81
2022/08/28 08:49:15;;;;;;;69.37;4.40;;;20.10;15.70;;;;;;5060693;28;20417;-80
2022/08/28 08:51:45;;;;;;;72.53;4.57;;;20.20;15.30;;;;;;5061110;28;20410;-81
2022/08/28 08:54:14;;;;;;;71.27;4.33;;;20.10;14.90;;;;;;5061197;28;20458;-81
2022/08/28 08:56:42;;;;;;;68.73;3.87;;;20.10;13.60;;;;;;5060571;28;20425;-81
2022/08/28 08:59:18;;;;;;;78.17;5.93;;;20.10;14.30;;;;;;5042568;28;20489;-81
2022/08/28 09:01:54;;;;;;;70.97;4.63;;;20.10;14.50;;;;;;5060383;28;20451;-81
2022/08/28 09:04:48;;;;;;;79.23;4.90;;;20.00;16.40;;;;;;5060221;28;20387;-81
2022/08/28 09:07:43;;;;;;;77.70;4.90;;;20.10;16.30;;;;;;5059113;28;20450;-81
2022/08/28 09:10:11;;;;;;;71.73;4.60;;;20.20;13.10;;;;;;5061036;28;20429;-81
2022/08/28 09:12:50;;;;;;;72.53;4.73;;;20.40;11.40;;;;;;5060682;28;20415;-81
2022/08/28 09:15:32;;;;;;;73.70;4.93;;;20.50;7.60;;;;;;5058973;28;20447;-81
2022/08/28 09:18:13;;;;;;;71.17;4.60;;;20.50;6.70;;;;;;5042642;28;20938;-81
2022/08/28 09:20:41;;;;;;;73.17;4.33;;;20.60;2.60;;;;;;5043322;28;20403;-83
2022/08/28 09:23:07;;;;;;;70.80;3.80;;;20.80;1.00;;;;;;5061288;28;20488;-81
2022/08/28 09:26:00;;;;;;;77.40;4.33;;;20.70;1.00;;;;;;5060176;28;20429;-82
2022/08/28 09:28:38;;;;;;;72.50;3.97;;;20.70;1.00;;;;;;5058660;28;20613;-81
2022/08/28 09:31:04;;;;;;;75.10;4.40;;;20.80;1.00;;;;;;5059819;28;20430;-81
2022/08/28 09:33:43;;;;;;;72.27;4.03;;;20.80;1.00;;;;;;5060301;28;20447;-81
2022/08/28 09:36:34;;;;;;;73.00;4.20;;;20.80;1.00;;;;;;5041792;28;20199;-81
2022/08/28 09:39:20;;;;;;;71.83;3.43;;;20.70;1.00;;;;;;5059507;28;20403;-81
2022/08/28 09:45:00;;;;;;;68.30;3.33;;;20.70;1.00;;;;;;5059028;28;20375;-80
2022/08/28 09:47:56;;;;;;;68.90;3.77;;;20.80;1.00;;;;;;5034040;28;20464;-81
2022/08/28 09:50:38;;;;;;;75.73;4.40;;;20.60;1.00;;;;;;5040322;28;20405;-81
2022/08/28 09:53:10;;;;;;;77.50;3.80;;;20.90;1.00;;;;;;5059193;28;20507;-81
2022/08/28 09:56:10;;;;;;;70.50;4.27;;;20.90;1.00;;;;;;5059414;28;20407;-80
2022/08/28 09:58:50;;;;;;;70.60;4.00;;;21.10;1.00;;;;;;5059243;28;20789;-81
2022/08/28 10:01:33;;;;;;;72.60;4.23;;;21.10;1.00;;;;;;5058944;28;20478;-80
2022/08/28 10:04:14;;;;;;;74.47;4.77;;;21.40;1.00;;;;;;5058360;28;20447;-81
2022/08/28 10:07:04;;;;;;;73.30;3.80;;;21.50;1.00;;;;;;5059494;28;20441;-81
2022/08/28 10:10:18;;;;;;;69.30;3.40;;;21.60;1.00;;;;;;5039415;28;20408;-80
2022/08/28 10:13:00;;;;;;;70.13;4.30;;;21.50;1.00;;;;;;5037631;28;20414;-81
2022/08/28 10:15:49;;;;;;;69.23;4.00;;;21.60;1.00;;;;;;5059034;28;20415;-81
2022/08/28 10:18:30;;;;;;;70.97;5.23;;;22.00;1.00;;;;;;5059161;28;20433;-81
2022/08/28 10:21:27;;;;;;;76.13;4.67;;;22.40;1.00;;;;;;5059106;28;20498;-80
2022/08/28 10:24:08;;;;;;;72.10;4.53;;;22.50;1.00;;;;;;5041646;28;20440;-81
2022/08/28 10:26:36;;;;;;;71.00;3.80;;;22.70;1.00;;;;;;5059405;28;20491;-80
2022/08/28 10:29:11;;;;;;;69.90;3.93;;;22.90;1.00;;;;;;5059896;28;20475;-81
2022/08/28 10:32:08;;;;;;;70.50;4.33;;;23.10;1.00;;;;;;5140941;22;20841;-80
2022/08/28 10:35:01;;;;;;;70.40;4.03;;;22.70;1.00;;;;;;5075020;28;20432;-80
2022/08/28 10:38:06;;;;;;;69.37;3.70;;;23.10;1.00;;;;;;5075931;28;20528;-80
2022/08/28 10:40:40;;;;;;;70.87;3.70;;;23.20;1.00;;;;;;5075976;28;20397;-80
2022/08/28 10:43:18;;;;;;;70.07;3.90;;;23.30;1.00;;;;;;5075600;28;20375;-80
2022/08/28 10:45:44;;;;;;;70.80;3.83;;;23.50;1.00;;;;;;5075793;28;20390;-80
2022/08/28 10:48:25;;;;;;;71.30;4.23;;;23.60;1.00;;;;;;5075875;28;20509;-80
2022/08/28 10:51:17;;;;;;;68.57;3.60;;;23.50;1.00;;;;;;5075756;28;20386;-81
2022/08/28 10:53:54;;;;;;;71.37;3.63;;;23.10;1.00;;;;;;5045254;28;20447;-80
2022/08/28 10:56:39;;;;;;;72.10;3.73;;;22.90;1.00;;;;;;5077122;28;20418;-80
2022/08/28 10:59:05;;;;;;;70.73;3.87;;;23.10;1.00;;;;;;5077735;28;20787;-81
2022/08/28 11:01:35;;;;;;;69.10;3.83;;;23.10;1.00;;;;;;5058723;28;20406;-81
2022/08/28 11:04:06;;;;;;;74.00;3.50;;;23.10;1.00;;;;;;5076402;28;20188;-80
2022/08/28 11:07:00;;;;;;;72.37;3.80;;;23.40;1.00;;;;;;5076751;28;20414;-80
2022/08/28 11:09:46;;;;;;;69.60;3.97;;;23.70;1.00;;;;;;5076650;28;20406;-81
2022/08/28 11:12:18;;;;;;;72.20;3.67;;;24.10;1.00;;;;;;5058784;28;20398;-80
2022/08/28 11:14:52;;;;;;;72.27;3.60;;;24.00;1.00;;;;;;5057964;28;20410;-80
2022/08/28 11:17:20;;;;;;;71.10;3.30;;;24.20;1.00;;;;;;5076735;28;20431;-81
2022/08/28 11:20:12;;;;;;;70.20;3.97;;;24.60;1.00;;;;;;5076734;28;20400;-81
2022/08/28 11:22:55;;;;;;;69.70;4.00;;;24.60;1.00;;;;;;5076609;28;20418;-81
2022/08/28 11:25:25;;;;;;;73.10;4.10;;;24.60;1.00;;;;;;5077318;28;20386;-80
2022/08/28 11:28:16;;;;;;;68.27;4.23;;;24.80;1.00;;;;;;5059530;28;20487;-80
2022/08/28 11:30:45;;;;;;;68.90;4.40;;;25.00;1.00;;;;;;5058594;28;20436;-81
2022/08/28 11:33:34;;;;;;;68.03;4.40;;;24.80;1.00;;;;;;5077529;28;20827;-81
2022/08/28 11:36:00;;;;;;;76.67;5.37;;;24.70;1.00;;;;;;5068139;28;20411;-80
2022/08/28 11:38:41;;;;;;;70.47;4.40;;;24.70;1.00;;;;;;5059654;28;20485;-81
2022/08/28 11:41:14;;;;;;;72.70;3.90;;;24.60;1.00;;;;;;5076731;28;20426;-80
2022/08/28 11:43:45;;;;;;;69.67;3.37;;;24.70;1.00;;;;;;5075580;28;20790;-80
2022/08/28 11:46:10;;;;;;;70.43;3.60;;;24.50;1.00;;;;;;5074232;28;20387;-81
2022/08/28 11:48:38;;;;;;;70.20;3.77;;;24.40;1.00;;;;;;5057438;28;20464;-82
2022/08/28 11:51:06;;;;;;;70.10;3.13;;;24.60;1.00;;;;;;5075338;28;20160;-81
2022/08/28 11:53:57;;;;;;;68.17;2.80;;;24.80;1.00;;;;;;5075360;28;20453;-82
2022/08/28 11:57:11;;;;;;;69.77;3.13;;;25.10;1.00;;;;;;5075156;28;20419;-81
2022/08/28 12:00:19;;;;;;;69.27;3.00;;;25.30;1.00;;;;;;5053808;28;20440;-82
2022/08/28 12:03:08;;;;;;;71.83;3.73;;;25.30;1.00;;;;;;5076026;28;20872;-82
2022/08/28 12:05:38;;;;;;;68.90;3.10;;;25.50;1.00;;;;;;5079295;28;20874;-82
2022/08/28 12:08:04;;;;;;;69.23;3.83;;;25.90;1.00;;;;;;5078766;28;20458;-82
2022/08/28 12:10:32;;;;;;;68.90;2.97;;;25.80;1.00;;;;;;5079500;28;20492;-81
2022/08/28 12:13:03;;;;;;;68.07;3.30;;;25.90;1.00;;;;;;5079013;28;20888;-82
2022/08/28 12:15:29;;;;;;;72.53;3.40;;;26.20;1.00;;;;;;5079036;28;20400;-82
2022/08/28 12:18:10;;;;;;;70.00;3.60;;;25.80;1.00;;;;;;5079681;28;20448;-82
2022/08/28 12:20:58;;;;;;;73.10;4.20;;;25.80;1.00;;;;;;5079075;28;20397;-81
2022/08/28 12:23:30;;;;;;;73.30;3.87;;;25.90;1.00;;;;;;5078556;28;20437;-81
2022/08/28 12:26:17;;;;;;;67.67;3.33;;;26.00;1.00;;;;;;5061027;28;20424;-81
2022/08/28 12:28:56;;;;;;;78.03;4.13;;;26.10;1.00;;;;;;5078803;28;20374;-81
2022/08/28 12:34:34;;;;;;;69.60;2.80;;;26.50;1.00;;;;;;5078597;28;20463;-81
2022/08/28 12:37:02;;;;;;;68.30;2.60;;;26.80;1.00;;;;;;5078496;28;20414;-81
2022/08/28 12:39:31;;;;;;;67.23;2.57;;;26.70;1.00;;;;;;5078801;28;20433;-81
2022/08/28 12:41:58;;;;;;;72.77;2.97;;;26.80;1.00;;;;;;5078797;28;20485;-81
2022/08/28 12:44:29;;;;;;;72.00;3.60;;;26.80;1.00;;;;;;5078256;28;20417;-82
2022/08/28 12:46:56;;;;;;;71.13;3.83;;;26.70;1.00;;;;;;5077997;28;20558;-82
2022/08/28 12:49:36;;;;;;;69.87;3.20;;;26.50;1.00;;;;;;5060593;28;20410;-81
2022/08/28 12:52:17;;;;;;;67.00;2.43;;;26.40;1.00;;;;;;5079114;28;20386;-82
2022/08/28 12:54:45;;;;;;;68.27;2.60;;;26.60;1.00;;;;;;5078280;28;20430;-81
2022/08/28 12:57:22;;;;;;;70.17;3.47;;;26.50;1.00;;;;;;5060204;28;20980;-81
2022/08/28 12:59:50;;;;;;;67.17;2.33;;;26.50;1.00;;;;;;5077622;28;20754;-81
2022/08/28 13:02:29;;;;;;;68.83;2.80;;;26.30;1.00;;;;;;5077605;28;20394;-82
2022/08/28 13:05:10;;;;;;;69.17;3.00;;;26.20;1.00;;;;;;5060179;28;20441;-82
2022/08/28 13:07:46;;;;;;;68.57;2.63;;;25.90;1.00;;;;;;5077820;28;20441;-82
2022/08/28 13:10:32;;;;;;;68.17;2.73;;;25.90;1.00;;;;;;5078123;28;20392;-82